Time;durP1;ratioP1;P1;durP2;ratioP2;P2;SDS_P1;SDS_P2;PMS_P1;PMS_P2;Temp;Humidity;BMP_temperature;BMP_pressure;BME280_temperature;BME280_humidity;BME280_pressure;Samples;Min_cycle;Max_cycle;Signal;HPM_P1;HPM_P2
2023/08/11 00:02:07;;;;;;;6.13;1.90;;;;;;;;;;5007186;28;20089;-73
2023/08/11 00:04:33;;;;;;;2.55;1.70;;;;;;;;;;5007056;28;20072;-74
2023/08/11 00:07:00;;;;;;;3.50;2.00;;;;;;;;;;5006061;28;20031;-73
2023/08/11 00:09:26;;;;;;;2.83;1.80;;;;;;;;;;5007430;28;20030;-73
2023/08/11 00:11:52;;;;;;;2.65;1.90;;;;;;;;;;5006309;28;20030;-74
2023/08/11 00:14:18;;;;;;;2.53;1.95;;;;;;;;;;5007160;28;20041;-74
2023/08/11 00:16:44;;;;;;;2.75;1.60;;;;;;;;;;5006196;28;20477;-74
2023/08/11 00:19:10;;;;;;;2.85;1.65;;;;;;;;;;5004807;28;20613;-74
2023/08/11 00:21:36;;;;;;;3.92;1.88;;;;;;;;;;5007193;28;20030;-73
2023/08/11 00:24:02;;;;;;;2.13;1.70;;;;;;;;;;5008046;28;20049;-74
2023/08/11 00:26:30;;;;;;;2.97;1.67;;;;;;;;;;5008044;28;20036;-74
2023/08/11 00:28:56;;;;;;;3.30;2.08;;;;;;;;;;5007347;28;20022;-74
2023/08/11 00:31:22;;;;;;;4.90;2.38;;;;;;;;;;5008098;28;20030;-73
2023/08/11 00:33:51;;;;;;;2.40;1.80;;;;;;;;;;5008300;28;20441;-74
2023/08/11 00:36:17;;;;;;;4.32;2.28;;;;;;;;;;5007753;28;20033;-74
2023/08/11 00:38:43;;;;;;;2.28;1.70;;;;;;;;;;5007865;28;20049;-74
2023/08/11 00:41:10;;;;;;;2.55;1.63;;;;;;;;;;5008675;28;20390;-74
2023/08/11 00:43:37;;;;;;;2.42;1.70;;;;;;;;;;5005425;28;20022;-74
2023/08/11 00:46:08;;;;;;;2.90;1.70;;;;;;;;;;4991094;28;20041;-74
2023/08/11 00:48:34;;;;;;;3.42;1.70;;;;;;;;;;5003991;28;20117;-74
2023/08/11 00:51:01;;;;;;;4.43;1.88;;;;;;;;;;5008380;28;20060;-74
2023/08/11 00:53:27;;;;;;;3.22;1.70;;;;;;;;;;5007180;28;20040;-74
2023/08/11 00:55:53;;;;;;;3.33;1.98;;;;;;;;;;5008802;28;20034;-74
2023/08/11 00:58:19;;;;;;;3.00;1.45;;;;;;;;;;5007103;28;20050;-74
2023/08/11 01:00:46;;;;;;;2.35;2.00;;;;;;;;;;5007278;28;20021;-73
2023/08/11 01:03:12;;;;;;;2.25;1.67;;;;;;;;;;5008316;28;20054;-74
2023/08/11 01:05:43;;;;;;;1.75;1.40;;;;;;;;;;5021346;28;20505;-74
2023/08/11 01:08:18;;;;;;;2.13;1.70;;;;;;;;;;5008197;28;20489;-74
2023/08/11 01:10:46;;;;;;;2.45;1.83;;;;;;;;;;5004839;28;20121;-74
2023/08/11 01:13:17;;;;;;;3.40;2.20;;;;;;;;;;5001818;28;20092;-74
2023/08/11 01:15:45;;;;;;;3.80;1.83;;;;;;;;;;5006550;28;20029;-73
2023/08/11 01:18:12;;;;;;;3.45;2.20;;;;;;;;;;5006579;28;20054;-74
2023/08/11 01:20:39;;;;;;;2.03;1.52;;;;;;;;;;5003830;28;20030;-74
2023/08/11 01:23:07;;;;;;;2.78;1.85;;;;;;;;;;5006263;28;20034;-73
2023/08/11 01:25:34;;;;;;;3.00;1.80;;;;;;;;;;5007514;28;20029;-74
2023/08/11 01:28:00;;;;;;;2.45;1.38;;;;;;;;;;5007061;28;20482;-74
2023/08/11 01:30:27;;;;;;;3.08;1.60;;;;;;;;;;5005262;28;20038;-75
2023/08/11 01:32:53;;;;;;;2.17;1.70;;;;;;;;;;5007848;28;20030;-74
2023/08/11 01:35:19;;;;;;;2.97;1.60;;;;;;;;;;5008430;28;20390;-74
2023/08/11 01:37:46;;;;;;;4.35;1.77;;;;;;;;;;5007864;28;20046;-73
2023/08/11 01:40:14;;;;;;;2.50;1.70;;;;;;;;;;5006987;28;20109;-74
2023/08/11 01:42:44;;;;;;;3.15;1.83;;;;;;;;;;5006353;28;20029;-73
2023/08/11 01:45:11;;;;;;;3.08;1.70;;;;;;;;;;5006176;28;20267;-74
2023/08/11 01:47:38;;;;;;;2.65;1.55;;;;;;;;;;5007850;28;20038;-74
2023/08/11 01:50:05;;;;;;;3.75;2.20;;;;;;;;;;5006181;28;20040;-74
2023/08/11 01:52:31;;;;;;;1.98;1.50;;;;;;;;;;5004149;28;20026;-74
2023/08/11 01:54:57;;;;;;;3.40;1.70;;;;;;;;;;5007487;28;20033;-73
2023/08/11 01:57:23;;;;;;;2.75;1.60;;;;;;;;;;5006588;28;20114;-74
2023/08/11 01:59:49;;;;;;;2.30;1.40;;;;;;;;;;5006388;28;20113;-74
2023/08/11 02:02:16;;;;;;;2.15;1.35;;;;;;;;;;5007281;28;20022;-74
2023/08/11 02:04:42;;;;;;;2.10;1.73;;;;;;;;;;5003431;28;20101;-74
2023/08/11 02:07:08;;;;;;;2.92;1.90;;;;;;;;;;5009623;28;20033;-74
2023/08/11 02:09:34;;;;;;;2.15;1.50;;;;;;;;;;5010250;28;20117;-73
2023/08/11 02:12:00;;;;;;;2.25;1.63;;;;;;;;;;5008556;28;20037;-74
2023/08/11 02:14:26;;;;;;;1.95;1.38;;;;;;;;;;5008116;28;20084;-74
2023/08/11 02:16:52;;;;;;;2.83;1.75;;;;;;;;;;5009100;28;20034;-74
2023/08/11 02:19:18;;;;;;;2.22;1.52;;;;;;;;;;5011830;28;20022;-74
2023/08/11 02:21:44;;;;;;;1.42;1.33;;;;;;;;;;5010394;28;20433;-73
2023/08/11 02:24:09;;;;;;;2.17;1.65;;;;;;;;;;5010306;28;20394;-74
2023/08/11 02:26:35;;;;;;;3.45;1.95;;;;;;;;;;5008879;28;20030;-74
2023/08/11 02:29:03;;;;;;;2.35;1.48;;;;;;;;;;5011240;28;20025;-74
2023/08/11 02:31:31;;;;;;;2.03;1.58;;;;;;;;;;5005417;28;20033;-73
2023/08/11 02:33:57;;;;;;;2.22;1.60;;;;;;;;;;5010778;28;20057;-74
2023/08/11 02:36:23;;;;;;;5.13;1.80;;;;;;;;;;5010055;28;20041;-74
2023/08/11 02:38:49;;;;;;;2.05;1.70;;;;;;;;;;5010698;28;20029;-74
2023/08/11 02:41:15;;;;;;;2.03;1.48;;;;;;;;;;5009796;28;20497;-74
2023/08/11 02:43:41;;;;;;;3.67;1.90;;;;;;;;;;5008908;28;20031;-74
2023/08/11 02:46:07;;;;;;;2.15;1.80;;;;;;;;;;5009698;28;20548;-74
2023/08/11 02:48:38;;;;;;;2.13;1.88;;;;;;;;;;5007213;28;20114;-74
2023/08/11 02:51:04;;;;;;;3.08;2.13;;;;;;;;;;5008874;28;20054;-74
2023/08/11 02:53:30;;;;;;;2.75;2.03;;;;;;;;;;5006418;28;20037;-74
2023/08/11 02:55:56;;;;;;;2.65;1.88;;;;;;;;;;5009373;28;20289;-74
2023/08/11 02:58:22;;;;;;;2.20;1.55;;;;;;;;;;5008419;28;20042;-74
2023/08/11 03:00:49;;;;;;;3.83;1.80;;;;;;;;;;5008463;28;20109;-74
2023/08/11 03:03:15;;;;;;;2.00;1.65;;;;;;;;;;5008482;28;20033;-74
2023/08/11 03:05:43;;;;;;;7.20;1.92;;;;;;;;;;5009262;28;20092;-74
2023/08/11 03:08:09;;;;;;;2.70;1.67;;;;;;;;;;5008290;28;20026;-74
2023/08/11 03:10:35;;;;;;;2.47;1.80;;;;;;;;;;5007994;28;20033;-74
2023/08/11 03:13:01;;;;;;;2.42;1.40;;;;;;;;;;5007911;28;20034;-74
2023/08/11 03:15:27;;;;;;;2.45;1.55;;;;;;;;;;5006628;28;20037;-73
2023/08/11 03:17:54;;;;;;;2.30;1.88;;;;;;;;;;5008781;28;20022;-74
2023/08/11 03:20:20;;;;;;;2.60;1.90;;;;;;;;;;5008081;28;21495;-73
2023/08/11 03:22:46;;;;;;;3.15;1.70;;;;;;;;;;4998107;28;20121;-73
2023/08/11 03:25:12;;;;;;;1.70;1.45;;;;;;;;;;5005777;28;20030;-74
2023/08/11 03:27:42;;;;;;;2.30;1.67;;;;;;;;;;5008607;28;20060;-74
2023/08/11 03:30:10;;;;;;;3.97;1.55;;;;;;;;;;5009269;28;20029;-73
2023/08/11 03:32:36;;;;;;;1.30;1.20;;;;;;;;;;5006806;28;20045;-74
2023/08/11 03:35:02;;;;;;;2.05;1.40;;;;;;;;;;5007907;28;20053;-74
2023/08/11 03:37:29;;;;;;;4.22;1.67;;;;;;;;;;5008035;28;20044;-74
2023/08/11 03:39:55;;;;;;;1.95;1.55;;;;;;;;;;5005632;28;20018;-74
2023/08/11 03:42:21;;;;;;;2.78;1.92;;;;;;;;;;5006740;28;20482;-73
2023/08/11 03:44:47;;;;;;;1.67;1.52;;;;;;;;;;5006958;28;20068;-74
2023/08/11 03:47:13;;;;;;;2.85;1.80;;;;;;;;;;5007061;28;20474;-74
2023/08/11 03:49:39;;;;;;;2.28;1.70;;;;;;;;;;5007821;28;20120;-74
2023/08/11 03:52:05;;;;;;;2.22;1.60;;;;;;;;;;5007161;28;20075;-74
2023/08/11 03:54:31;;;;;;;2.00;1.50;;;;;;;;;;5004819;28;20080;-74
2023/08/11 03:56:57;;;;;;;2.03;1.40;;;;;;;;;;5003682;28;20025;-77
2023/08/11 03:59:23;;;;;;;1.60;1.30;;;;;;;;;;5003417;28;20442;-77
2023/08/11 04:01:49;;;;;;;3.63;1.50;;;;;;;;;;5008511;28;20014;-77
2023/08/11 04:04:15;;;;;;;3.30;1.67;;;;;;;;;;5008619;28;20033;-76
2023/08/11 04:06:41;;;;;;;2.25;1.48;;;;;;;;;;5007961;28;20044;-77
2023/08/11 04:09:07;;;;;;;3.03;1.73;;;;;;;;;;5008287;28;20037;-77
2023/08/11 04:11:33;;;;;;;1.35;1.23;;;;;;;;;;5008472;28;20059;-76
2023/08/11 04:13:59;;;;;;;1.83;1.60;;;;;;;;;;5005434;28;20064;-77
2023/08/11 04:16:25;;;;;;;3.35;1.45;;;;;;;;;;5004910;28;21413;-77
2023/08/11 04:18:51;;;;;;;2.67;1.58;;;;;;;;;;5004555;28;20014;-77
2023/08/11 04:21:17;;;;;;;2.10;1.60;;;;;;;;;;5004361;28;20037;-77
2023/08/11 04:23:43;;;;;;;1.30;1.20;;;;;;;;;;5004027;28;20106;-77
2023/08/11 04:26:10;;;;;;;2.15;1.20;;;;;;;;;;5006802;28;20224;-77
2023/08/11 04:28:38;;;;;;;3.03;1.83;;;;;;;;;;5009110;28;20096;-77
2023/08/11 04:31:05;;;;;;;3.13;1.40;;;;;;;;;;5006398;28;20478;-77
2023/08/11 04:33:32;;;;;;;2.10;1.30;;;;;;;;;;5010659;28;20105;-77
2023/08/11 04:35:58;;;;;;;1.60;1.30;;;;;;;;;;5007054;28;20026;-77
2023/08/11 04:38:24;;;;;;;4.22;1.73;;;;;;;;;;5008581;28;20026;-77
2023/08/11 04:40:51;;;;;;;3.08;1.60;;;;;;;;;;5015390;28;20021;-77
2023/08/11 04:43:18;;;;;;;3.30;1.70;;;;;;;;;;5016882;28;20079;-77
2023/08/11 04:45:44;;;;;;;3.88;1.77;;;;;;;;;;5007730;28;20037;-77
2023/08/11 04:48:10;;;;;;;2.50;1.73;;;;;;;;;;5007554;28;20022;-77
2023/08/11 04:50:36;;;;;;;1.60;1.40;;;;;;;;;;5008501;28;20065;-77
2023/08/11 04:53:03;;;;;;;1.58;1.30;;;;;;;;;;5009660;28;20477;-77
2023/08/11 04:55:30;;;;;;;2.75;1.38;;;;;;;;;;5003213;28;20030;-77
2023/08/11 04:57:56;;;;;;;2.15;1.40;;;;;;;;;;5001767;28;20049;-77
2023/08/11 05:00:22;;;;;;;2.65;1.52;;;;;;;;;;5004949;28;20037;-77
2023/08/11 05:02:51;;;;;;;2.08;1.48;;;;;;;;;;5007826;28;20026;-77
2023/08/11 05:05:19;;;;;;;2.65;1.50;;;;;;;;;;5004120;28;20034;-77
2023/08/11 05:07:45;;;;;;;1.88;1.50;;;;;;;;;;5007465;28;20030;-78
2023/08/11 05:10:11;;;;;;;3.72;1.50;;;;;;;;;;5007946;28;20449;-77
2023/08/11 05:12:37;;;;;;;2.13;1.50;;;;;;;;;;5006287;28;20030;-78
2023/08/11 05:15:03;;;;;;;1.77;1.30;;;;;;;;;;5007711;28;20042;-78
2023/08/11 05:17:30;;;;;;;1.52;1.40;;;;;;;;;;5007057;28;20026;-78
2023/08/11 05:19:56;;;;;;;7.97;2.30;;;;;;;;;;5005804;28;20675;-78
2023/08/11 05:22:22;;;;;;;2.08;1.38;;;;;;;;;;5007135;28;20030;-78
2023/08/11 05:24:48;;;;;;;1.50;1.40;;;;;;;;;;5004356;28;20029;-77
2023/08/11 05:27:15;;;;;;;5.72;1.85;;;;;;;;;;5009718;28;20474;-78
2023/08/11 05:29:45;;;;;;;2.22;1.48;;;;;;;;;;5005828;28;20034;-77
2023/08/11 05:32:10;;;;;;;2.10;1.52;;;;;;;;;;5007572;28;20420;-77
2023/08/11 05:34:36;;;;;;;2.47;1.38;;;;;;;;;;5007708;28;20072;-77
2023/08/11 05:37:03;;;;;;;3.53;1.58;;;;;;;;;;5006713;28;20030;-76
2023/08/11 05:39:29;;;;;;;2.90;1.70;;;;;;;;;;5009506;28;20022;-77
2023/08/11 05:41:56;;;;;;;2.47;1.50;;;;;;;;;;5009316;28;20072;-77
2023/08/11 05:44:23;;;;;;;2.58;1.48;;;;;;;;;;5011361;28;20029;-77
2023/08/11 05:46:48;;;;;;;1.63;1.27;;;;;;;;;;5011281;28;20042;-77
2023/08/11 05:49:14;;;;;;;2.20;1.70;;;;;;;;;;5010497;28;20041;-77
2023/08/11 05:51:40;;;;;;;1.92;1.20;;;;;;;;;;5008953;28;20026;-77
2023/08/11 05:54:06;;;;;;;3.30;1.50;;;;;;;;;;5009382;28;20038;-77
2023/08/11 05:56:32;;;;;;;1.73;1.33;;;;;;;;;;5009341;28;20493;-77
2023/08/11 05:58:58;;;;;;;3.03;1.85;;;;;;;;;;5007647;28;20046;-78
2023/08/11 06:01:24;;;;;;;2.25;1.30;;;;;;;;;;5004405;28;20446;-77
2023/08/11 06:03:50;;;;;;;4.10;1.50;;;;;;;;;;5011382;28;20025;-77
2023/08/11 06:06:16;;;;;;;2.08;1.30;;;;;;;;;;5011331;28;20021;-79
2023/08/11 06:08:42;;;;;;;2.58;1.45;;;;;;;;;;5011706;28;20029;-73
2023/08/11 06:11:08;;;;;;;1.98;1.50;;;;;;;;;;5009685;28;20125;-74
2023/08/11 06:13:34;;;;;;;1.58;1.33;;;;;;;;;;5009759;28;20022;-73
2023/08/11 06:16:00;;;;;;;2.17;1.63;;;;;;;;;;5009579;28;20029;-73
2023/08/11 06:18:27;;;;;;;4.15;1.35;;;;;;;;;;5004517;28;20029;-74
2023/08/11 06:20:53;;;;;;;2.47;1.80;;;;;;;;;;5006422;28;20109;-75
2023/08/11 06:23:22;;;;;;;2.55;1.42;;;;;;;;;;5009574;28;20022;-75
2023/08/11 06:25:49;;;;;;;1.45;1.33;;;;;;;;;;5009992;28;20032;-75
2023/08/11 06:28:15;;;;;;;4.20;1.55;;;;;;;;;;5009154;28;20057;-74
2023/08/11 06:30:41;;;;;;;2.08;1.38;;;;;;;;;;5009154;28;20056;-75
2023/08/11 06:33:07;;;;;;;1.65;1.30;;;;;;;;;;5011869;28;20041;-75
2023/08/11 06:35:33;;;;;;;1.60;1.50;;;;;;;;;;5009074;28;20021;-76
2023/08/11 06:37:59;;;;;;;3.35;1.70;;;;;;;;;;5004569;28;20030;-75
2023/08/11 06:40:26;;;;;;;3.03;2.03;;;;;;;;;;5017961;28;20743;-75
2023/08/11 06:42:51;;;;;;;1.95;1.60;;;;;;;;;;5010877;28;20025;-75
2023/08/11 06:45:18;;;;;;;2.28;1.67;;;;;;;;;;5005773;28;20042;-74
2023/08/11 06:47:43;;;;;;;1.73;1.63;;;;;;;;;;4992826;28;20434;-75
2023/08/11 06:50:10;;;;;;;2.78;1.65;;;;;;;;;;5002395;28;20033;-75
2023/08/11 06:52:36;;;;;;;2.10;1.60;;;;;;;;;;5019561;28;20029;-75
2023/08/11 06:55:03;;;;;;;2.40;1.90;;;;;;;;;;5010019;28;20041;-74
2023/08/11 06:57:29;;;;;;;2.55;1.58;;;;;;;;;;5010919;28;20053;-75
2023/08/11 06:59:56;;;;;;;2.15;1.42;;;;;;;;;;5005267;28;20038;-74
2023/08/11 07:02:22;;;;;;;7.45;1.60;;;;;;;;;;5004582;28;20029;-75
2023/08/11 07:04:48;;;;;;;2.35;1.33;;;;;;;;;;5006427;28;20034;-74
2023/08/11 07:07:14;;;;;;;3.05;1.30;;;;;;;;;;5010038;28;20051;-74
2023/08/11 07:09:40;;;;;;;1.60;1.50;;;;;;;;;;5003850;28;20762;-74
2023/08/11 07:12:06;;;;;;;2.55;1.63;;;;;;;;;;5007160;28;20503;-75
2023/08/11 07:14:32;;;;;;;1.40;1.15;;;;;;;;;;4996247;28;20030;-75
2023/08/11 07:16:58;;;;;;;2.30;1.42;;;;;;;;;;5004062;28;20059;-75
2023/08/11 07:19:24;;;;;;;2.97;1.48;;;;;;;;;;5003371;28;20708;-75
2023/08/11 07:21:50;;;;;;;2.22;1.48;;;;;;;;;;5004819;28;20093;-74
2023/08/11 07:24:19;;;;;;;3.88;1.70;;;;;;;;;;5006480;28;20556;-74
2023/08/11 07:26:48;;;;;;;2.17;1.27;;;;;;;;;;5008193;28;20034;-74
2023/08/11 07:29:14;;;;;;;2.25;1.70;;;;;;;;;;5005821;28;20497;-74
2023/08/11 07:31:46;;;;;;;2.45;1.42;;;;;;;;;;5005977;28;20042;-74
2023/08/11 07:34:12;;;;;;;1.88;1.15;;;;;;;;;;5005819;28;20084;-74
2023/08/11 07:36:38;;;;;;;2.63;1.40;;;;;;;;;;5006752;28;20025;-74
2023/08/11 07:39:07;;;;;;;2.17;1.73;;;;;;;;;;5003365;28;20425;-75
2023/08/11 07:41:33;;;;;;;3.53;2.13;;;;;;;;;;5003681;28;20631;-74
2023/08/11 07:43:59;;;;;;;3.38;1.23;;;;;;;;;;5005851;28;20034;-75
2023/08/11 07:46:26;;;;;;;6.47;1.50;;;;;;;;;;5004327;28;20493;-75
2023/08/11 07:48:51;;;;;;;2.05;1.45;;;;;;;;;;5007120;28;20433;-75
2023/08/11 07:51:17;;;;;;;3.10;1.20;;;;;;;;;;5004129;28;20437;-76
2023/08/11 07:53:47;;;;;;;1.75;1.40;;;;;;;;;;5004826;28;20045;-75
2023/08/11 07:56:13;;;;;;;1.98;1.30;;;;;;;;;;5001293;28;20022;-75
2023/08/11 07:58:39;;;;;;;1.65;1.30;;;;;;;;;;5003141;28;20053;-75
2023/08/11 08:01:08;;;;;;;8.13;1.45;;;;;;;;;;5002886;28;20580;-75
2023/08/11 08:03:34;;;;;;;1.70;1.25;;;;;;;;;;4998824;28;20397;-75
2023/08/11 08:06:00;;;;;;;7.35;1.65;;;;;;;;;;4995045;28;20034;-75
2023/08/11 08:08:26;;;;;;;3.03;1.60;;;;;;;;;;5002603;28;20029;-75
2023/08/11 08:10:52;;;;;;;3.97;1.30;;;;;;;;;;5002224;28;20040;-76
2023/08/11 08:13:18;;;;;;;4.40;1.30;;;;;;;;;;5001765;28;20048;-74
2023/08/11 08:15:44;;;;;;;1.00;1.00;;;;;;;;;;5004706;28;20054;-75
2023/08/11 08:18:10;;;;;;;2.20;1.00;;;;;;;;;;5006123;28;20030;-75
2023/08/11 08:20:36;;;;;;;2.28;1.92;;;;;;;;;;5007950;28;20414;-75
2023/08/11 08:23:03;;;;;;;2.50;1.52;;;;;;;;;;5002530;28;20049;-74
2023/08/11 08:25:29;;;;;;;1.35;0.88;;;;;;;;;;5003349;28;20034;-75
2023/08/11 08:27:55;;;;;;;4.10;1.63;;;;;;;;;;5001201;28;20577;-74
2023/08/11 08:30:21;;;;;;;3.60;1.70;;;;;;;;;;5002937;28;20038;-74
2023/08/11 08:32:47;;;;;;;2.67;1.40;;;;;;;;;;5006519;28;20048;-75
2023/08/11 08:35:13;;;;;;;5.38;1.48;;;;;;;;;;5004669;28;20139;-74
2023/08/11 08:37:39;;;;;;;2.75;1.48;;;;;;;;;;5001623;28;20080;-72
2023/08/11 08:40:09;;;;;;;2.15;1.40;;;;;;;;;;4998845;28;20034;-75
2023/08/11 08:42:35;;;;;;;1.13;1.00;;;;;;;;;;5008038;28;20026;-74
2023/08/11 08:45:04;;;;;;;1.85;1.20;;;;;;;;;;5005840;28;20037;-76
2023/08/11 08:47:30;;;;;;;3.50;0.98;;;;;;;;;;5007391;28;20481;-74
2023/08/11 08:49:56;;;;;;;3.50;0.95;;;;;;;;;;5007168;28;20068;-74
2023/08/11 08:52:22;;;;;;;1.05;0.95;;;;;;;;;;5007030;28;20054;-74
2023/08/11 08:54:48;;;;;;;1.42;1.10;;;;;;;;;;5007607;28;20037;-74
2023/08/11 08:57:15;;;;;;;2.40;1.92;;;;;;;;;;5005606;28;20037;-74
2023/08/11 08:59:41;;;;;;;1.05;0.95;;;;;;;;;;5003843;28;20716;-75
2023/08/11 09:02:07;;;;;;;1.17;0.93;;;;;;;;;;5004453;28;20087;-76
2023/08/11 09:04:34;;;;;;;1.73;1.00;;;;;;;;;;4993718;28;20034;-76
2023/08/11 09:07:00;;;;;;;1.10;1.00;;;;;;;;;;5007264;28;20065;-76
2023/08/11 09:09:27;;;;;;;1.65;1.10;;;;;;;;;;4997722;28;20045;-74
2023/08/11 09:11:54;;;;;;;1.13;1.00;;;;;;;;;;5008255;28;20026;-74
2023/08/11 09:14:20;;;;;;;3.22;1.48;;;;;;;;;;5003667;28;20549;-75
2023/08/11 09:16:47;;;;;;;1.95;1.63;;;;;;;;;;5004672;28;20052;-75
2023/08/11 09:19:13;;;;;;;1.83;1.25;;;;;;;;;;5005268;28;20026;-75
2023/08/11 09:21:43;;;;;;;1.45;1.35;;;;;;;;;;5000571;28;20211;-75
2023/08/11 09:24:12;;;;;;;2.45;1.20;;;;;;;;;;5006460;28;20117;-75
2023/08/11 09:26:38;;;;;;;0.95;0.90;;;;;;;;;;5007265;28;20040;-74
2023/08/11 09:29:04;;;;;;;7.43;1.10;;;;;;;;;;5008084;28;20096;-75
2023/08/11 09:31:30;;;;;;;1.58;1.05;;;;;;;;;;5009498;28;20026;-76
2023/08/11 09:33:56;;;;;;;1.10;1.00;;;;;;;;;;5006902;28;20470;-77
2023/08/11 09:36:22;;;;;;;2.97;1.95;;;;;;;;;;5007165;28;20014;-76
2023/08/11 09:38:49;;;;;;;2.70;1.50;;;;;;;;;;4999843;28;20041;-76
2023/08/11 09:41:16;;;;;;;0.90;0.80;;;;;;;;;;5001869;28;20109;-76
2023/08/11 09:43:49;;;;;;;2.47;1.20;;;;;;;;;;5009762;28;20184;-76
2023/08/11 09:46:15;;;;;;;20.55;1.45;;;;;;;;;;5008524;28;20065;-76
2023/08/11 09:48:41;;;;;;;1.02;0.93;;;;;;;;;;5008935;28;20022;-77
2023/08/11 09:51:10;;;;;;;1.00;0.90;;;;;;;;;;5003932;28;20118;-75
2023/08/11 09:53:38;;;;;;;1.00;0.80;;;;;;;;;;5009032;28;20394;-78
2023/08/11 09:56:04;;;;;;;2.53;0.85;;;;;;;;;;5003833;28;20034;-76
2023/08/11 09:58:30;;;;;;;0.93;0.82;;;;;;;;;;5004605;28;20096;-76
2023/08/11 10:00:57;;;;;;;1.40;0.85;;;;;;;;;;5002249;28;20033;-76
2023/08/11 10:03:26;;;;;;;1.17;1.02;;;;;;;;;;5008101;28;20026;-76
2023/08/11 10:05:53;;;;;;;0.70;0.70;;;;;;;;;;5003676;28;20030;-76
2023/08/11 10:08:20;;;;;;;0.77;0.75;;;;;;;;;;5008619;28;20084;-76
2023/08/11 10:10:46;;;;;;;1.27;0.90;;;;;;;;;;5008290;28;20040;-76
2023/08/11 10:13:15;;;;;;;2.65;1.20;;;;;;;;;;5008230;28;20085;-76
2023/08/11 10:15:41;;;;;;;1.73;0.93;;;;;;;;;;5007001;28;20531;-76
2023/08/11 10:18:07;;;;;;;0.75;0.70;;;;;;;;;;4996219;28;20021;-76
2023/08/11 10:20:39;;;;;;;1.00;0.82;;;;;;;;;;5006265;28;20022;-76
2023/08/11 10:23:05;;;;;;;2.55;0.68;;;;;;;;;;5006315;28;20033;-77
2023/08/11 10:25:32;;;;;;;0.68;0.68;;;;;;;;;;5009178;28;20500;-76
2023/08/11 10:27:58;;;;;;;6.10;1.25;;;;;;;;;;5004838;28;20473;-77
2023/08/11 10:30:25;;;;;;;1.20;1.10;;;;;;;;;;5006533;28;20026;-81
2023/08/11 10:32:56;;;;;;;0.77;0.77;;;;;;;;;;5010305;28;20033;-78
2023/08/11 10:35:26;;;;;;;0.77;0.77;;;;;;;;;;5004362;28;20497;-78
2023/08/11 10:37:59;;;;;;;0.70;0.70;;;;;;;;;;5003589;28;20492;-76
2023/08/11 10:40:33;;;;;;;0.70;0.70;;;;;;;;;;5009180;28;20030;-76
2023/08/11 10:43:00;;;;;;;1.75;0.85;;;;;;;;;;5010063;28;20605;-76
2023/08/11 10:45:26;;;;;;;0.85;0.85;;;;;;;;;;5009071;28;20578;-76
2023/08/11 10:47:55;;;;;;;2.00;0.70;;;;;;;;;;5004409;28;20034;-76
2023/08/11 10:50:22;;;;;;;1.65;1.10;;;;;;;;;;5005620;28;20034;-75
2023/08/11 10:52:55;;;;;;;0.80;0.70;;;;;;;;;;5008779;28;20109;-77
2023/08/11 10:55:21;;;;;;;0.60;0.60;;;;;;;;;;5003289;28;20040;-76
2023/08/11 10:58:05;;;;;;;0.73;0.73;;;;;;;;;;5006138;28;20025;-76
2023/08/11 11:00:32;;;;;;;2.42;0.95;;;;;;;;;;5000497;28;20084;-77
2023/08/11 11:02:58;;;;;;;0.73;0.73;;;;;;;;;;5001298;28;20429;-76
2023/08/11 11:05:25;;;;;;;1.90;0.82;;;;;;;;;;5006263;28;20030;-75
2023/08/11 11:07:51;;;;;;;0.60;0.60;;;;;;;;;;5004133;28;20627;-76
2023/08/11 11:10:17;;;;;;;0.82;0.63;;;;;;;;;;5004930;28;20037;-75
2023/08/11 11:12:44;;;;;;;0.65;0.60;;;;;;;;;;5006361;28;20126;-78
2023/08/11 11:15:10;;;;;;;0.65;0.60;;;;;;;;;;5007425;28;20030;-76
2023/08/11 11:17:39;;;;;;;0.63;0.63;;;;;;;;;;5004307;28;20117;-75
2023/08/11 11:20:06;;;;;;;1.63;0.73;;;;;;;;;;5007426;28;20106;-74
2023/08/11 11:22:32;;;;;;;0.60;0.60;;;;;;;;;;5006819;28;20053;-73
2023/08/11 11:25:00;;;;;;;1.40;0.60;;;;;;;;;;5008235;28;20030;-74
2023/08/11 11:27:26;;;;;;;1.73;0.70;;;;;;;;;;5007952;28;20030;-74
2023/08/11 11:32:58;;;;;;;0.98;0.80;;;;;;;;;;4977697;28;20038;-74
2023/08/11 11:35:27;;;;;;;0.50;0.50;;;;;;;;;;5008392;28;20049;-74
2023/08/11 11:37:53;;;;;;;1.60;0.95;;;;;;;;;;5008933;28;20026;-74
2023/08/11 11:40:19;;;;;;;1.45;0.63;;;;;;;;;;5008563;28;20414;-74
2023/08/11 11:42:47;;;;;;;0.60;0.60;;;;;;;;;;5007259;28;20037;-74
2023/08/11 11:45:13;;;;;;;1.30;0.70;;;;;;;;;;5004979;28;20038;-75
2023/08/11 11:48:23;;;;;;;0.63;0.63;;;;;;;;;;5000684;28;20041;-74
2023/08/11 11:50:50;;;;;;;0.90;0.80;;;;;;;;;;4998995;28;20034;-74
2023/08/11 11:53:16;;;;;;;0.52;0.52;;;;;;;;;;5006694;28;20108;-74
2023/08/11 11:55:46;;;;;;;1.48;0.70;;;;;;;;;;5007777;28;20022;-74
2023/08/11 11:58:15;;;;;;;1.08;1.00;;;;;;;;;;5006690;28;20034;-74
2023/08/11 12:00:41;;;;;;;3.15;0.60;;;;;;;;;;5004991;28;20038;-75
2023/08/11 12:03:07;;;;;;;0.80;0.80;;;;;;;;;;5005066;28;20034;-74
2023/08/11 12:05:33;;;;;;;0.70;0.60;;;;;;;;;;5006752;28;20029;-74
2023/08/11 12:07:59;;;;;;;0.65;0.65;;;;;;;;;;5004703;28;20478;-75
2023/08/11 12:10:34;;;;;;;0.65;0.65;;;;;;;;;;5008895;28;20034;-74
2023/08/11 12:13:00;;;;;;;0.45;0.45;;;;;;;;;;5002869;28;20036;-74
2023/08/11 12:15:26;;;;;;;0.50;0.50;;;;;;;;;;5001996;28;20033;-75
2023/08/11 12:17:53;;;;;;;0.50;0.50;;;;;;;;;;4998516;28;20033;-75
2023/08/11 12:20:21;;;;;;;0.68;0.68;;;;;;;;;;5000162;28;20022;-75
2023/08/11 12:22:47;;;;;;;0.50;0.50;;;;;;;;;;5004109;28;20022;-74
2023/08/11 12:25:13;;;;;;;0.60;0.60;;;;;;;;;;5005910;28;20037;-74
2023/08/11 12:27:39;;;;;;;0.60;0.60;;;;;;;;;;5006837;28;20030;-74
2023/08/11 12:30:06;;;;;;;0.65;0.55;;;;;;;;;;5005521;28;20034;-74
2023/08/11 12:32:32;;;;;;;0.47;0.47;;;;;;;;;;5008038;28;20029;-74
2023/08/11 12:34:58;;;;;;;0.80;0.63;;;;;;;;;;5004873;28;20026;-75
2023/08/11 12:37:26;;;;;;;0.60;0.60;;;;;;;;;;5002313;28;20025;-74
2023/08/11 12:39:52;;;;;;;0.60;0.47;;;;;;;;;;5002323;28;20037;-74
2023/08/11 12:42:18;;;;;;;0.50;0.50;;;;;;;;;;4998346;28;20026;-74
2023/08/11 12:44:44;;;;;;;0.80;0.80;;;;;;;;;;5005465;28;20060;-75
2023/08/11 12:47:09;;;;;;;0.85;0.68;;;;;;;;;;5003336;28;20397;-74
2023/08/11 12:49:35;;;;;;;1.00;0.70;;;;;;;;;;4999969;28;20026;-74
2023/08/11 12:52:01;;;;;;;0.63;0.50;;;;;;;;;;5001931;28;20489;-75
2023/08/11 12:54:27;;;;;;;0.70;0.57;;;;;;;;;;5006747;28;20033;-74
2023/08/11 12:56:53;;;;;;;0.50;0.50;;;;;;;;;;5006963;28;20037;-75
2023/08/11 12:59:19;;;;;;;0.60;0.60;;;;;;;;;;5004723;28;20050;-74
2023/08/11 13:01:45;;;;;;;0.40;0.40;;;;;;;;;;5002530;28;20033;-74
2023/08/11 13:04:11;;;;;;;1.75;0.70;;;;;;;;;;5007746;28;20168;-75
2023/08/11 13:06:39;;;;;;;0.40;0.40;;;;;;;;;;5007252;28;20050;-75
2023/08/11 13:09:07;;;;;;;0.63;0.50;;;;;;;;;;5007983;28;20053;-75
2023/08/11 13:11:33;;;;;;;1.30;0.70;;;;;;;;;;5007829;28;20022;-75
2023/08/11 13:13:59;;;;;;;1.13;0.57;;;;;;;;;;5001183;28;20088;-75
2023/08/11 13:16:25;;;;;;;1.85;1.20;;;;;;;;;;5005348;28;20227;-75
2023/08/11 13:18:51;;;;;;;0.52;0.52;;;;;;;;;;5005416;28;20030;-75
2023/08/11 13:21:17;;;;;;;0.70;0.70;;;;;;;;;;5000454;28;20022;-75
2023/08/11 13:23:43;;;;;;;0.43;0.40;;;;;;;;;;5006235;28;20033;-75
2023/08/11 13:26:09;;;;;;;0.60;0.60;;;;;;;;;;5006893;28;20365;-75
2023/08/11 13:28:35;;;;;;;0.45;0.45;;;;;;;;;;5003180;28;20033;-75
2023/08/11 13:31:01;;;;;;;0.50;0.50;;;;;;;;;;5005435;28;20030;-75
2023/08/11 13:33:27;;;;;;;0.52;0.52;;;;;;;;;;5003487;28;20371;-75
2023/08/11 13:35:53;;;;;;;0.68;0.68;;;;;;;;;;4995981;28;20034;-75
2023/08/11 13:38:19;;;;;;;0.45;0.45;;;;;;;;;;5002451;28;20041;-75
2023/08/11 13:40:45;;;;;;;1.50;0.43;;;;;;;;;;4995217;28;20053;-75
2023/08/11 13:43:10;;;;;;;0.40;0.40;;;;;;;;;;5000844;28;20022;-73
2023/08/11 13:45:36;;;;;;;0.70;0.60;;;;;;;;;;5004707;28;20037;-75
2023/08/11 13:48:02;;;;;;;2.08;0.93;;;;;;;;;;4999493;28;20030;-75
2023/08/11 13:50:28;;;;;;;1.02;0.70;;;;;;;;;;4992460;28;20088;-75
2023/08/11 13:52:54;;;;;;;0.30;0.30;;;;;;;;;;5004187;28;20540;-75
2023/08/11 13:55:20;;;;;;;0.50;0.50;;;;;;;;;;5006021;28;20413;-75
2023/08/11 13:57:47;;;;;;;0.50;0.50;;;;;;;;;;5002064;28;20041;-75
2023/08/11 14:00:14;;;;;;;1.05;0.70;;;;;;;;;;5000510;28;20048;-74
2023/08/11 14:02:40;;;;;;;0.75;0.57;;;;;;;;;;5008426;28;20022;-75
2023/08/11 14:05:06;;;;;;;0.82;0.70;;;;;;;;;;5006334;28;20529;-75
2023/08/11 14:07:32;;;;;;;0.30;0.30;;;;;;;;;;5005671;28;20033;-75
2023/08/11 14:09:59;;;;;;;0.50;0.50;;;;;;;;;;5000845;28;20037;-75
2023/08/11 14:12:25;;;;;;;0.68;0.50;;;;;;;;;;5008126;28;20033;-75
2023/08/11 14:14:51;;;;;;;0.43;0.43;;;;;;;;;;5010807;28;20394;-75
2023/08/11 14:17:17;;;;;;;0.50;0.50;;;;;;;;;;5001538;28;20305;-75
2023/08/11 14:19:43;;;;;;;0.52;0.52;;;;;;;;;;5007871;28;20092;-75
2023/08/11 14:22:09;;;;;;;0.50;0.50;;;;;;;;;;5005531;28;20088;-75
2023/08/11 14:24:35;;;;;;;0.63;0.55;;;;;;;;;;5010683;28;20037;-75
2023/08/11 14:27:01;;;;;;;0.45;0.40;;;;;;;;;;5008379;28;20053;-75
2023/08/11 14:29:26;;;;;;;0.65;0.65;;;;;;;;;;5007455;28;20668;-75
2023/08/11 14:31:52;;;;;;;0.55;0.55;;;;;;;;;;5011107;28;20029;-75
2023/08/11 14:34:18;;;;;;;1.15;0.70;;;;;;;;;;5000282;28;20034;-75
2023/08/11 14:36:44;;;;;;;0.40;0.40;;;;;;;;;;5004143;28;20030;-75
2023/08/11 14:39:10;;;;;;;0.35;0.35;;;;;;;;;;5008290;28;20092;-75
2023/08/11 14:41:36;;;;;;;0.60;0.60;;;;;;;;;;5010345;28;20026;-75
2023/08/11 14:44:02;;;;;;;1.02;0.60;;;;;;;;;;5006316;28;20044;-74